< < Back
Terminal Aerodrome Forecast


Current Version              Previous Versions:   1  2  3  4  5  6  7  8  9  

Terminal Aerodrome Forecast

084
FTUS44 KBMX 011100 AAE
TAFMGM
TAF AMD
KMGM 011100Z 0111/0206 00000KT 4SM BR SKC
      TEMPO 0111/0113 1SM BR OVC001
     FM011400 11003KT P6SM SKC=

Latest METAR

898
SAUS80 KWBC 011600 RRG
MTRMGM
METAR KMGM 011553Z 13003KT 10SM BKN021 26/18 A3000 RMK AO2 SLP157
T02610183 $


USA.gov is the U.S. government's official web portal to all federal, state and local government web resources and services.